Time;durP1;ratioP1;P1;durP2;ratioP2;P2;SDS_P1;SDS_P2;PMS_P1;PMS_P2;Temp;Humidity;BMP_temperature;BMP_pressure;BME280_temperature;BME280_humidity;BME280_pressure;Samples;Min_cycle;Max_cycle;Signal;HPM_P1;HPM_P2
2023/12/28 00:00:18;;;;;;;;;;;;;;;15.53;49.86;101995.97;5075526;28;1011;-52
2023/12/28 00:02:44;;;;;;;;;;;;;;;17.04;46.31;101997.19;5061985;28;1142;-53
2023/12/28 00:05:09;;;;;;;;;;;;;;;16.97;46.05;101999.31;5065846;28;1151;-53
2023/12/28 00:07:35;;;;;;;;;;;;;;;16.15;48.14;101992.94;5064795;28;996;-53
2023/12/28 00:10:02;;;;;;;;;;;;;;;15.79;48.83;102009.75;5064936;28;1071;-50
2023/12/28 00:12:27;;;;;;;;;;;;;;;15.55;49.11;102004.69;5058628;28;1078;-57
2023/12/28 00:14:53;;;;;;;;;;;;;;;16.49;47.48;102016.91;5065523;28;1059;-55
2023/12/28 00:17:19;;;;;;;;;;;;;;;17.29;45.33;102018.00;5072228;28;1087;-55
2023/12/28 00:19:44;;;;;;;;;;;;;;;16.26;47.63;102026.91;5058753;28;1974;-53
2023/12/28 00:22:10;;;;;;;;;;;;;;;15.89;48.69;102028.72;5057404;28;1852;-55
2023/12/28 00:24:35;;;;;;;;;;;;;;;15.62;48.89;102027.34;5075146;28;1118;-54
2023/12/28 00:27:01;;;;;;;;;;;;;;;15.41;49.79;102022.13;5072154;28;1253;-52
2023/12/28 00:29:28;;;;;;;;;;;;;;;16.84;46.73;102017.75;5064913;28;1043;-53
2023/12/28 00:31:54;;;;;;;;;;;;;;;17.27;45.50;102022.53;5061141;28;1623;-56
2023/12/28 00:34:19;;;;;;;;;;;;;;;16.26;47.58;102018.97;5075267;28;1083;-55
2023/12/28 00:36:45;;;;;;;;;;;;;;;15.87;48.83;102031.47;5054016;28;1161;-54
2023/12/28 00:39:10;;;;;;;;;;;;;;;15.66;49.14;102036.88;5055431;28;1964;-54
2023/12/28 00:41:36;;;;;;;;;;;;;;;15.61;49.31;102038.03;5039921;28;1274;-56
2023/12/28 00:44:02;;;;;;;;;;;;;;;17.11;46.19;102030.53;5069996;28;871;-54
2023/12/28 00:46:28;;;;;;;;;;;;;;;16.98;46.15;102030.31;5059007;28;1212;-56
2023/12/28 00:48:53;;;;;;;;;;;;;;;16.19;47.76;102020.19;5055183;28;1080;-53
2023/12/28 00:51:20;;;;;;;;;;;;;;;15.83;48.49;102021.06;5055074;28;1151;-56
2023/12/28 00:53:46;;;;;;;;;;;;;;;15.62;49.20;102021.19;5045826;28;2695;-56
2023/12/28 00:56:12;;;;;;;;;;;;;;;15.37;49.54;102025.88;5062218;28;1098;-52
2023/12/28 00:58:40;;;;;;;;;;;;;;;16.83;46.91;102021.34;5056777;28;1960;-56
2023/12/28 01:01:06;;;;;;;;;;;;;;;17.05;45.83;102023.69;5054585;28;1044;-55
2023/12/28 01:03:32;;;;;;;;;;;;;;;16.28;47.49;102024.19;5037046;28;1162;-55
2023/12/28 01:05:57;;;;;;;;;;;;;;;15.88;48.34;102029.69;5071162;28;1114;-57
2023/12/28 01:08:23;;;;;;;;;;;;;;;15.58;49.32;102028.41;5064473;28;850;-55
2023/12/28 01:10:48;;;;;;;;;;;;;;;15.55;49.51;102032.09;5061124;28;1106;-54
2023/12/28 01:13:14;;;;;;;;;;;;;;;17.04;46.37;102024.66;5078142;28;1166;-54
2023/12/28 01:15:40;;;;;;;;;;;;;;;16.74;46.31;102022.69;5078107;28;1039;-54
2023/12/28 01:18:06;;;;;;;;;;;;;;;16.07;47.88;102020.81;5068916;28;1977;-54
2023/12/28 01:20:32;;;;;;;;;;;;;;;15.74;49.04;102019.72;5074010;28;874;-55
2023/12/28 01:22:58;;;;;;;;;;;;;;;15.52;49.23;102012.81;5050574;28;1875;-55
2023/12/28 01:25:23;;;;;;;;;;;;;;;15.91;48.98;102005.63;5071334;28;1239;-56
2023/12/28 01:27:49;;;;;;;;;;;;;;;17.33;45.55;102000.09;5058195;28;1118;-54
2023/12/28 01:30:15;;;;;;;;;;;;;;;16.76;46.27;101991.59;5053526;28;1196;-56
2023/12/28 01:32:41;;;;;;;;;;;;;;;16.03;48.23;101998.88;5065464;28;1060;-56
2023/12/28 01:35:07;;;;;;;;;;;;;;;15.78;48.82;102011.53;5073659;28;1028;-54
2023/12/28 01:37:33;;;;;;;;;;;;;;;15.59;49.25;102005.41;5077863;28;1027;-54
2023/12/28 01:40:00;;;;;;;;;;;;;;;16.75;46.80;102000.50;5057224;28;1914;-55
2023/12/28 01:42:25;;;;;;;;;;;;;;;16.82;46.40;102001.03;5067476;28;1046;-55
2023/12/28 01:44:51;;;;;;;;;;;;;;;16.04;47.90;102008.56;5058255;28;1242;-52
2023/12/28 01:47:17;;;;;;;;;;;;;;;15.71;49.04;102011.91;5077974;28;1051;-53
2023/12/28 01:49:42;;;;;;;;;;;;;;;15.48;49.02;102006.78;5046111;28;1033;-54
2023/12/28 01:52:08;;;;;;;;;;;;;;;16.63;47.19;102007.34;5077202;28;2338;-52
2023/12/28 01:54:33;;;;;;;;;;;;;;;17.35;44.96;102001.69;5073510;28;976;-54
2023/12/28 01:56:59;;;;;;;;;;;;;;;16.30;47.22;102008.16;5060197;28;896;-50
2023/12/28 01:59:25;;;;;;;;;;;;;;;15.88;48.24;102005.78;5055417;28;1976;-54
2023/12/28 02:01:50;;;;;;;;;;;;;;;15.61;48.98;102004.44;5033756;28;1104;-55
2023/12/28 02:04:16;;;;;;;;;;;;;;;16.38;47.55;102000.66;5059979;28;1060;-56
2023/12/28 02:06:41;;;;;;;;;;;;;;;17.46;44.90;102008.22;5077397;28;1024;-57
2023/12/28 02:09:07;;;;;;;;;;;;;;;16.45;47.24;101998.56;5061714;28;896;-56
2023/12/28 02:11:32;;;;;;;;;;;;;;;15.96;48.16;102008.91;5058964;28;1081;-52
2023/12/28 02:13:58;;;;;;;;;;;;;;;15.71;48.85;102003.97;5055795;28;1103;-56
2023/12/28 02:16:29;;;;;;;;;;;;;;;15.49;49.26;102016.47;5057267;28;1091;-54
2023/12/28 02:18:55;;;;;;;;;;;;;;;16.43;47.55;102017.22;5055565;28;1971;-55
2023/12/28 02:21:20;;;;;;;;;;;;;;;17.37;45.01;102021.09;5033003;28;2173;-53
2023/12/28 02:23:49;;;;;;;;;;;;;;;16.32;47.04;102020.41;5076342;28;1896;-54
2023/12/28 02:26:18;;;;;;;;;;;;;;;15.86;48.31;102021.78;5058190;28;1204;-54
2023/12/28 02:28:44;;;;;;;;;;;;;;;15.67;49.01;102029.78;5077082;28;1154;-56
2023/12/28 02:31:10;;;;;;;;;;;;;;;15.47;49.55;102036.03;5058860;28;996;-56
2023/12/28 02:33:38;;;;;;;;;;;;;;;16.91;46.19;102028.91;5058250;28;1402;-58
2023/12/28 02:36:13;;;;;;;;;;;;;;;17.04;45.51;102027.31;5059009;28;1184;-56
2023/12/28 02:38:38;;;;;;;;;;;;;;;16.22;47.38;102038.63;5059076;28;1906;-55
2023/12/28 02:41:04;;;;;;;;;;;;;;;15.87;48.36;102035.91;5059068;28;1106;-57
2023/12/28 02:43:30;;;;;;;;;;;;;;;15.59;48.73;102038.13;5075914;28;1099;-56
2023/12/28 02:45:56;;;;;;;;;;;;;;;15.60;49.31;102036.34;5076861;28;1001;-56
2023/12/28 02:48:22;;;;;;;;;;;;;;;17.07;45.92;102032.44;5058228;28;1075;-57
2023/12/28 02:50:47;;;;;;;;;;;;;;;16.96;45.68;102030.38;5076285;28;1133;-56
2023/12/28 02:53:13;;;;;;;;;;;;;;;16.18;47.44;102033.56;5053262;28;1882;-56
2023/12/28 02:55:38;;;;;;;;;;;;;;;15.81;48.16;102033.56;5058687;28;1111;-56
2023/12/28 02:58:05;;;;;;;;;;;;;;;15.61;49.13;102035.38;5075906;28;1906;-57
2023/12/28 03:00:30;;;;;;;;;;;;;;;15.46;49.25;102036.97;5076294;28;1067;-57
2023/12/28 03:02:56;;;;;;;;;;;;;;;16.69;46.94;102030.91;5075852;28;1103;-56
2023/12/28 03:05:22;;;;;;;;;;;;;;;17.49;44.55;102029.31;5076099;28;1099;-56
2023/12/28 03:07:48;;;;;;;;;;;;;;;16.42;46.82;102020.81;5057628;28;1060;-57
2023/12/28 03:10:14;;;;;;;;;;;;;;;15.95;47.97;102033.72;5076033;28;1143;-57
2023/12/28 03:12:40;;;;;;;;;;;;;;;15.66;48.68;102031.56;5058022;28;1032;-56
2023/12/28 03:15:06;;;;;;;;;;;;;;;15.75;49.02;102032.91;5064277;28;1000;-55
2023/12/28 03:17:32;;;;;;;;;;;;;;;17.25;45.54;102033.28;5056197;28;1090;-55
2023/12/28 03:19:58;;;;;;;;;;;;;;;16.83;45.98;102038.16;5053991;28;1909;-55
2023/12/28 03:22:24;;;;;;;;;;;;;;;16.11;47.82;102033.00;5074268;28;2406;-52
2023/12/28 03:24:50;;;;;;;;;;;;;;;15.76;48.54;102039.97;5045896;28;1155;-52
2023/12/28 03:27:16;;;;;;;;;;;;;;;15.54;48.86;102030.38;5052182;28;1124;-54
2023/12/28 03:29:42;;;;;;;;;;;;;;;15.40;49.26;102028.38;5067750;28;1133;-49
2023/12/28 03:32:08;;;;;;;;;;;;;;;16.64;46.75;102038.28;5043238;28;1166;-51
2023/12/28 03:34:34;;;;;;;;;;;;;;;17.42;44.65;102034.13;5076035;28;1019;-53
2023/12/28 03:37:00;;;;;;;;;;;;;;;16.35;47.17;102041.50;5071033;28;1333;-52
2023/12/28 03:39:26;;;;;;;;;;;;;;;15.90;47.88;102030.44;5049065;28;1906;-55
2023/12/28 03:41:53;;;;;;;;;;;;;;;15.65;48.68;102026.34;5062157;28;1052;-54
2023/12/28 03:44:20;;;;;;;;;;;;;;;16.13;47.91;102023.16;5070395;28;1004;-52
2023/12/28 03:46:46;;;;;;;;;;;;;;;17.37;44.89;102025.53;5073896;28;1012;-53
2023/12/28 03:49:12;;;;;;;;;;;;;;;16.50;46.60;102031.00;5075609;28;1027;-53
2023/12/28 03:51:38;;;;;;;;;;;;;;;15.87;47.89;102028.81;5040809;28;1660;-54
2023/12/28 03:54:03;;;;;;;;;;;;;;;15.63;48.84;102029.06;5057092;28;2859;-50
2023/12/28 03:56:30;;;;;;;;;;;;;;;15.74;48.93;102028.56;5062723;28;1039;-53
2023/12/28 03:58:55;;;;;;;;;;;;;;;17.21;45.26;102023.75;5076066;28;1967;-52
2023/12/28 04:01:21;;;;;;;;;;;;;;;16.83;45.70;102022.19;5062311;28;1059;-53
2023/12/28 04:03:48;;;;;;;;;;;;;;;16.05;47.84;102026.19;5041487;28;999;-52
2023/12/28 04:06:14;;;;;;;;;;;;;;;15.76;48.39;102026.69;5060682;28;1103;-53
2023/12/28 04:08:40;;;;;;;;;;;;;;;15.59;48.67;102021.34;5069688;28;1043;-54
2023/12/28 04:11:07;;;;;;;;;;;;;;;16.07;48.21;102013.72;5052059;28;1209;-55
2023/12/28 04:13:35;;;;;;;;;;;;;;;17.39;44.81;102013.03;5049594;28;1008;-55
2023/12/28 04:16:01;;;;;;;;;;;;;;;16.62;46.24;102019.75;5062038;28;1052;-54
2023/12/28 04:18:26;;;;;;;;;;;;;;;16.00;48.02;102023.78;5074231;28;1902;-55
2023/12/28 04:20:52;;;;;;;;;;;;;;;15.71;48.34;102014.56;5056475;28;1035;-54
2023/12/28 04:23:17;;;;;;;;;;;;;;;15.46;48.91;102011.31;5067882;28;2508;-53
2023/12/28 04:25:43;;;;;;;;;;;;;;;16.25;47.58;102014.56;5057207;28;1099;-52
2023/12/28 04:28:09;;;;;;;;;;;;;;;17.48;44.61;102014.31;5058699;28;1135;-52
2023/12/28 04:30:34;;;;;;;;;;;;;;;16.61;46.05;102017.19;5047592;28;1125;-50
2023/12/28 04:33:00;;;;;;;;;;;;;;;16.02;47.44;102011.28;5056769;28;1325;-49
2023/12/28 04:35:26;;;;;;;;;;;;;;;15.66;48.70;102002.38;5047404;28;1213;-51
2023/12/28 04:37:52;;;;;;;;;;;;;;;15.51;48.60;102014.63;5054086;28;1232;-50
2023/12/28 04:40:17;;;;;;;;;;;;;;;16.48;47.13;102012.50;5055873;28;1890;-49
2023/12/28 04:42:43;;;;;;;;;;;;;;;17.50;44.46;102009.75;5041524;28;1137;-47
2023/12/28 04:45:10;;;;;;;;;;;;;;;16.49;46.65;102010.72;5068318;28;1106;-49
2023/12/28 04:47:35;;;;;;;;;;;;;;;15.91;47.80;102017.09;5024691;28;1337;-47
2023/12/28 04:50:02;;;;;;;;;;;;;;;15.64;48.31;102020.19;5072316;28;1156;-50
2023/12/28 04:52:28;;;;;;;;;;;;;;;15.76;48.37;102023.16;5061521;28;1922;-50
2023/12/28 04:54:53;;;;;;;;;;;;;;;17.27;45.21;102021.72;5078072;28;1016;-56
2023/12/28 04:57:19;;;;;;;;;;;;;;;16.87;45.49;102013.13;5075029;28;1151;-49
2023/12/28 04:59:45;;;;;;;;;;;;;;;16.14;47.30;102011.59;5059465;28;1980;-53
2023/12/28 05:02:11;;;;;;;;;;;;;;;15.73;48.42;102012.72;5059713;28;1206;-53
2023/12/28 05:04:38;;;;;;;;;;;;;;;15.58;48.48;102020.47;5059547;28;1284;-48
2023/12/28 05:07:04;;;;;;;;;;;;;;;15.39;49.11;102007.25;5065853;28;1103;-49
2023/12/28 05:09:29;;;;;;;;;;;;;;;16.88;45.96;102003.38;5054536;28;1124;-47
2023/12/28 05:11:55;;;;;;;;;;;;;;;17.24;44.71;102010.28;5064896;28;1082;-48
2023/12/28 05:14:21;;;;;;;;;;;;;;;16.28;46.78;102010.91;5063925;28;1031;-50
2023/12/28 05:16:46;;;;;;;;;;;;;;;15.91;47.78;102008.28;5077762;28;1122;-50
2023/12/28 05:19:12;;;;;;;;;;;;;;;15.60;48.53;102015.94;5078024;28;1906;-50
2023/12/28 05:21:37;;;;;;;;;;;;;;;15.38;49.15;102010.84;5076091;28;1135;-49
2023/12/28 05:24:03;;;;;;;;;;;;;;;16.85;46.16;102004.38;5066400;28;2413;-51
2023/12/28 05:26:29;;;;;;;;;;;;;;;16.47;46.34;102004.63;5077848;28;1032;-55
2023/12/28 05:28:54;;;;;;;;;;;;;;;15.41;48.32;102002.72;5073312;28;1194;-54
2023/12/28 05:31:20;;;;;;;;;;;;;;;15.11;47.71;102012.06;5058173;28;1008;-52
2023/12/28 05:33:45;;;;;;;;;;;;;;;16.44;47.74;102023.38;5066735;28;1133;-51
2023/12/28 05:36:11;;;;;;;;;;;;;;;15.76;48.39;102023.16;5077843;28;1008;-50
2023/12/28 05:38:37;;;;;;;;;;;;;;;15.26;47.73;102023.75;5078276;28;2010;-53
2023/12/28 05:41:02;;;;;;;;;;;;;;;16.81;46.34;102018.78;5077809;28;1046;-51
2023/12/28 05:43:28;;;;;;;;;;;;;;;15.53;48.25;102018.03;5059721;28;1023;-53
2023/12/28 05:45:53;;;;;;;;;;;;;;;15.82;49.16;102022.88;5068293;28;1071;-50
2023/12/28 05:48:19;;;;;;;;;;;;;;;16.38;47.31;102022.75;5073199;28;1211;-53
2023/12/28 05:50:44;;;;;;;;;;;;;;;15.52;48.01;102028.72;5068133;28;1223;-56
2023/12/28 05:53:14;;;;;;;;;;;;;;;16.66;47.69;102031.09;5072674;28;2435;-52
2023/12/28 05:55:40;;;;;;;;;;;;;;;15.91;47.78;102037.47;5057345;28;1143;-54
2023/12/28 05:58:05;;;;;;;;;;;;;;;15.84;48.73;102028.97;5064156;28;1906;-52
2023/12/28 06:00:31;;;;;;;;;;;;;;;16.87;46.40;102028.22;5069440;28;1081;-53
2023/12/28 06:02:57;;;;;;;;;;;;;;;15.74;47.77;102031.22;5063472;28;1178;-52
2023/12/28 06:05:22;;;;;;;;;;;;;;;15.83;48.79;102034.34;5065647;28;1183;-51
2023/12/28 06:07:48;;;;;;;;;;;;;;;17.19;45.98;102033.63;5057091;28;1125;-53
2023/12/28 06:10:13;;;;;;;;;;;;;;;15.88;47.60;102046.44;5068251;28;1051;-52
2023/12/28 06:12:39;;;;;;;;;;;;;;;15.50;47.42;102042.06;5063668;28;1158;-54
2023/12/28 06:15:05;;;;;;;;;;;;;;;16.64;46.97;102036.47;5076909;28;1063;-54
2023/12/28 06:17:30;;;;;;;;;;;;;;;15.65;47.75;102037.81;5063488;28;1058;-54
2023/12/28 06:19:56;;;;;;;;;;;;;;;16.89;46.98;102039.63;5076769;28;1902;-54
2023/12/28 06:22:22;;;;;;;;;;;;;;;16.37;47.23;102028.13;5066218;28;1833;-55
2023/12/28 06:24:47;;;;;;;;;;;;;;;15.74;47.39;102036.50;5076840;28;1074;-49
2023/12/28 06:27:13;;;;;;;;;;;;;;;17.57;45.43;102032.41;5076294;28;1023;-51
2023/12/28 06:29:39;;;;;;;;;;;;;;;16.10;47.42;102037.44;5076363;28;1031;-52
2023/12/28 06:32:04;;;;;;;;;;;;;;;15.74;47.15;102028.56;5076785;28;1098;-53
2023/12/28 06:34:30;;;;;;;;;;;;;;;16.33;48.04;102032.75;5064562;28;915;-54
2023/12/28 06:36:56;;;;;;;;;;;;;;;16.76;46.75;102029.66;5057037;28;1033;-53
2023/12/28 06:39:21;;;;;;;;;;;;;;;15.89;47.33;102026.06;5056217;28;1979;-53
2023/12/28 06:41:48;;;;;;;;;;;;;;;15.58;46.98;102027.59;5056697;28;1055;-55
2023/12/28 06:44:14;;;;;;;;;;;;;;;17.10;46.48;102026.16;5067527;28;1135;-52
2023/12/28 06:46:40;;;;;;;;;;;;;;;15.95;47.82;102036.38;5070630;28;1082;-51
2023/12/28 06:49:06;;;;;;;;;;;;;;;15.63;47.29;102028.22;5065154;28;1107;-51
2023/12/28 06:51:31;;;;;;;;;;;;;;;16.85;47.11;102025.63;5074721;28;1243;-52
2023/12/28 06:53:57;;;;;;;;;;;;;;;15.77;47.94;102035.50;5072460;28;2723;-54
2023/12/28 06:56:22;;;;;;;;;;;;;;;15.57;47.45;102034.66;5062910;28;1070;-51
2023/12/28 06:58:48;;;;;;;;;;;;;;;16.14;48.05;102038.16;5073886;28;1898;-52
2023/12/28 07:01:14;;;;;;;;;;;;;;;16.05;47.66;102034.16;5071593;28;1066;-56
2023/12/28 07:03:40;;;;;;;;;;;;;;;15.71;48.19;102022.53;5067363;28;1039;-52
2023/12/28 07:06:05;;;;;;;;;;;;;;;17.41;45.83;102029.78;5076028;28;1054;-52
2023/12/28 07:08:31;;;;;;;;;;;;;;;15.97;47.73;102029.19;5076010;28;1079;-54
2023/12/28 07:10:57;;;;;;;;;;;;;;;15.63;47.05;102030.88;5067055;28;1024;-54
2023/12/28 07:13:22;;;;;;;;;;;;;;;15.60;47.84;102020.41;5064619;28;1130;-54
2023/12/28 07:15:48;;;;;;;;;;;;;;;17.36;46.03;102019.38;5060860;28;1100;-52
2023/12/28 07:18:14;;;;;;;;;;;;;;;16.03;47.84;102020.97;5075934;28;1890;-52
2023/12/28 07:20:39;;;;;;;;;;;;;;;15.66;47.48;102026.25;5075826;28;1130;-51
2023/12/28 07:23:05;;;;;;;;;;;;;;;15.43;46.90;102025.56;5071176;28;1913;-48
2023/12/28 07:25:31;;;;;;;;;;;;;;;16.52;47.90;102035.31;5070661;28;1035;-54
2023/12/28 07:27:56;;;;;;;;;;;;;;;15.51;47.25;101862.59;5057111;28;1055;-53
2023/12/28 07:30:22;;;;;;;;;;;;;;;15.86;47.44;102039.50;5058378;28;1158;-53
2023/12/28 07:32:47;;;;;;;;;;;;;;;16.13;48.44;102039.94;5055713;28;1146;-52
2023/12/28 07:35:13;;;;;;;;;;;;;;;16.82;46.76;102033.78;5070133;28;1044;-51
2023/12/28 07:37:39;;;;;;;;;;;;;;;15.94;47.59;102033.81;5074579;28;1092;-49
2023/12/28 07:40:05;;;;;;;;;;;;;;;15.66;47.07;102039.50;5067174;28;1906;-53
2023/12/28 07:42:30;;;;;;;;;;;;;;;17.22;46.73;102038.75;5057793;28;1081;-52
2023/12/28 07:44:56;;;;;;;;;;;;;;;16.21;47.79;102033.38;5055810;28;1078;-55
2023/12/28 07:47:22;;;;;;;;;;;;;;;15.82;47.25;102033.47;5058644;28;904;-50
2023/12/28 07:49:47;;;;;;;;;;;;;;;15.52;46.61;102036.69;5058847;28;1073;-53
2023/12/28 07:52:13;;;;;;;;;;;;;;;16.68;47.70;102041.63;5074639;28;2354;-50
2023/12/28 07:54:38;;;;;;;;;;;;;;;15.98;47.67;102035.38;5058271;28;1039;-48
2023/12/28 07:57:04;;;;;;;;;;;;;;;15.71;47.15;102031.38;5055785;28;1083;-49
2023/12/28 07:59:30;;;;;;;;;;;;;;;16.93;47.14;102048.31;5059913;28;1906;-50
2023/12/28 08:01:55;;;;;;;;;;;;;;;16.22;47.36;102043.94;5075696;28;1119;-51
2023/12/28 08:04:21;;;;;;;;;;;;;;;15.74;47.40;102043.59;5061987;28;1098;-51
2023/12/28 08:06:47;;;;;;;;;;;;;;;17.24;46.45;102049.31;5065381;28;999;-51
2023/12/28 08:09:12;;;;;;;;;;;;;;;16.26;47.42;102044.63;5072135;28;1156;-51
2023/12/28 08:11:38;;;;;;;;;;;;;;;15.72;47.20;102048.13;5069290;28;856;-54
2023/12/28 08:14:03;;;;;;;;;;;;;;;16.42;48.11;102052.66;5063947;28;1051;-50
2023/12/28 08:16:29;;;;;;;;;;;;;;;16.86;46.66;102042.44;5069851;28;1127;-53
2023/12/28 08:18:54;;;;;;;;;;;;;;;15.96;47.63;102046.06;5075452;28;1973;-53
2023/12/28 08:21:20;;;;;;;;;;;;;;;15.64;47.09;102035.22;5079792;28;1140;-50
2023/12/28 08:23:45;;;;;;;;;;;;;;;15.49;47.21;102040.34;5066647;28;2258;-51
2023/12/28 08:26:11;;;;;;;;;;;;;;;17.31;46.23;102031.22;5078749;28;1125;-53
2023/12/28 08:28:37;;;;;;;;;;;;;;;16.15;47.23;102032.75;5076632;28;1032;-53
2023/12/28 08:31:02;;;;;;;;;;;;;;;16.00;48.76;102034.38;5068084;28;1083;-54
2023/12/28 08:33:28;;;;;;;;;;;;;;;16.57;47.22;102028.91;5065880;28;1127;-55
2023/12/28 08:35:54;;;;;;;;;;;;;;;15.79;47.60;102028.31;5069577;28;989;-49
2023/12/28 08:38:19;;;;;;;;;;;;;;;15.84;47.75;102031.63;5074239;28;1976;-55
2023/12/28 08:40:45;;;;;;;;;;;;;;;17.57;45.43;102018.25;5078928;28;1217;-54
2023/12/28 08:43:10;;;;;;;;;;;;;;;16.16;47.51;102015.03;5078277;28;1422;-53
2023/12/28 08:45:36;;;;;;;;;;;;;;;15.76;47.62;102024.03;5078681;28;1055;-51
2023/12/28 08:48:02;;;;;;;;;;;;;;;15.58;47.17;102016.97;5077454;28;961;-52
2023/12/28 08:50:27;;;;;;;;;;;;;;;15.72;48.31;102019.81;5078905;28;1095;-53
2023/12/28 08:52:53;;;;;;;;;;;;;;;16.74;46.76;102010.28;5073750;28;2425;-55
2023/12/28 08:55:19;;;;;;;;;;;;;;;15.85;47.64;102016.56;5078481;28;1059;-54
2023/12/28 08:57:44;;;;;;;;;;;;;;;16.80;47.45;101994.94;5065295;28;1103;-52
2023/12/28 09:00:10;;;;;;;;;;;;;;;16.38;47.57;101988.22;5069135;28;1906;-54
2023/12/28 09:02:37;;;;;;;;;;;;;;;15.89;47.53;101983.63;5061371;28;1013;-54
2023/12/28 09:05:02;;;;;;;;;;;;;;;15.58;46.94;101980.69;5078517;28;1107;-57
2023/12/28 09:07:28;;;;;;;;;;;;;;;16.63;46.58;101882.47;5065269;28;1016;-51
2023/12/28 09:09:54;;;;;;;;;;;;;;;16.51;47.14;101976.97;5079024;28;1071;-55
2023/12/28 09:12:19;;;;;;;;;;;;;;;15.81;47.50;101970.75;5064781;28;999;-55
2023/12/28 09:14:45;;;;;;;;;;;;;;;16.52;47.87;101968.91;5065948;28;1031;-55
2023/12/28 09:17:11;;;;;;;;;;;;;;;16.59;47.18;101971.22;5079477;28;1157;-56
2023/12/28 09:19:36;;;;;;;;;;;;;;;15.96;47.48;101955.84;5060943;28;1905;-52
2023/12/28 09:22:03;;;;;;;;;;;;;;;15.67;47.26;101952.84;5064914;28;1135;-55
2023/12/28 09:24:28;;;;;;;;;;;;;;;17.38;46.14;101947.50;5069026;28;861;-54
2023/12/28 09:26:54;;;;;;;;;;;;;;;16.07;47.50;101944.69;5071164;28;1182;-54
2023/12/28 09:29:20;;;;;;;;;;;;;;;15.76;47.11;101936.50;5078406;28;1043;-51
2023/12/28 09:31:45;;;;;;;;;;;;;;;15.54;46.64;101932.25;5065128;28;1118;-56
2023/12/28 09:34:11;;;;;;;;;;;;;;;15.99;47.80;101929.16;5058650;28;1099;-54
2023/12/28 09:36:37;;;;;;;;;;;;;;;16.10;47.34;101925.94;5074895;28;1000;-56
2023/12/28 09:39:03;;;;;;;;;;;;;;;16.50;47.68;101919.44;5066536;28;1909;-52
2023/12/28 09:41:30;;;;;;;;;;;;;;;17.90;44.78;101912.56;5064780;28;1114;-56
2023/12/28 09:44:00;;;;;;;;;;;;;;;16.38;47.23;101903.25;5070414;28;1162;-53
2023/12/28 09:46:26;;;;;;;;;;;;;;;15.95;47.44;101892.22;5055938;28;1059;-55
2023/12/28 09:48:53;;;;;;;;;;;;;;;15.72;46.75;101889.81;5058534;28;896;-55
2023/12/28 09:51:19;;;;;;;;;;;;;;;17.13;46.91;101890.38;5043030;28;1142;-53
2023/12/28 09:53:45;;;;;;;;;;;;;;;16.18;47.41;101887.53;5078042;28;1074;-55
2023/12/28 09:56:11;;;;;;;;;;;;;;;15.78;47.20;101891.31;5077924;28;1074;-55
2023/12/28 09:58:37;;;;;;;;;;;;;;;16.34;47.88;101879.59;5068979;28;1963;-56
2023/12/28 10:01:02;;;;;;;;;;;;;;;17.12;46.13;101880.66;5070807;28;1024;-54
2023/12/28 10:03:28;;;;;;;;;;;;;;;16.00;47.82;101876.94;5048647;28;1159;-58
2023/12/28 10:05:54;;;;;;;;;;;;;;;15.74;47.13;101868.50;5064306;28;1042;-56
2023/12/28 10:08:19;;;;;;;;;;;;;;;15.67;46.18;101873.25;5077432;28;1110;-60
2023/12/28 10:10:50;;;;;;;;;;;;;;;16.23;47.60;101872.22;5075822;28;1153;-57
2023/12/28 10:13:16;;;;;;;;;;;;;;;17.10;46.51;101870.13;5068766;28;1127;-58
2023/12/28 10:15:43;;;;;;;;;;;;;;;16.08;47.63;101857.97;5058080;28;1103;-52
2023/12/28 10:18:08;;;;;;;;;;;;;;;15.86;46.76;101865.22;5066548;28;1149;-53
2023/12/28 10:20:34;;;;;;;;;;;;;;;15.59;46.54;101859.53;5075846;28;1985;-55
2023/12/28 10:23:00;;;;;;;;;;;;;;;17.18;46.83;101856.41;5064414;28;1187;-52
2023/12/28 10:25:26;;;;;;;;;;;;;;;16.07;47.72;101846.47;5071185;28;1139;-53
2023/12/28 10:27:52;;;;;;;;;;;;;;;15.63;47.70;101851.34;5066272;28;1044;-57
2023/12/28 10:30:18;;;;;;;;;;;;;;;17.29;46.10;101844.28;5077450;28;1083;-51
2023/12/28 10:32:43;;;;;;;;;;;;;;;16.14;47.57;101836.38;5059283;28;1224;-51
2023/12/28 10:35:09;;;;;;;;;;;;;;;15.83;46.88;101843.31;5076893;28;1075;-53
2023/12/28 10:37:34;;;;;;;;;;;;;;;15.96;48.06;101832.88;5050208;28;1192;-49
2023/12/28 10:40:03;;;;;;;;;;;;;;;16.48;47.53;101836.38;5053464;28;1910;-54
2023/12/28 10:42:31;;;;;;;;;;;;;;;15.82;47.60;101820.34;5064918;28;1060;-55
2023/12/28 10:45:04;;;;;;;;;;;;;;;15.61;47.23;101820.53;5077009;28;1207;-55
2023/12/28 10:47:31;;;;;;;;;;;;;;;17.16;46.24;101820.19;5071919;28;1145;-55
2023/12/28 10:49:57;;;;;;;;;;;;;;;16.05;47.76;101813.00;5072304;28;1122;-57
2023/12/28 10:52:23;;;;;;;;;;;;;;;15.69;47.38;101813.03;5068322;28;1098;-58
2023/12/28 10:54:55;;;;;;;;;;;;;;;16.99;46.47;101816.69;5071396;28;1130;-51
2023/12/28 10:57:27;;;;;;;;;;;;;;;15.89;47.83;101812.00;5046614;28;1056;-56
2023/12/28 10:59:59;;;;;;;;;;;;;;;16.26;48.20;101809.19;5049365;28;1909;-50
2023/12/28 11:02:27;;;;;;;;;;;;;;;16.50;47.21;101798.13;5058077;28;1026;-52
2023/12/28 11:04:53;;;;;;;;;;;;;;;15.91;47.57;101791.53;5076333;28;1138;-53
2023/12/28 11:07:19;;;;;;;;;;;;;;;16.48;47.73;101799.19;5057072;28;1099;-48
2023/12/28 11:09:44;;;;;;;;;;;;;;;16.43;47.32;101796.78;5056852;28;1087;-53
2023/12/28 11:12:10;;;;;;;;;;;;;;;15.79;47.63;101782.44;5046143;28;1180;-52
2023/12/28 11:14:36;;;;;;;;;;;;;;;16.01;47.67;101786.63;5071476;28;1375;-54
2023/12/28 11:17:02;;;;;;;;;;;;;;;16.78;46.66;101790.41;5058307;28;1080;-53
2023/12/28 11:19:27;;;;;;;;;;;;;;;15.86;47.32;101782.09;5069504;28;1902;-54
2023/12/28 11:21:53;;;;;;;;;;;;;;;15.58;47.15;101776.44;5069863;28;1091;-55
2023/12/28 11:24:19;;;;;;;;;;;;;;;16.69;47.00;101778.50;5069324;28;892;-53
2023/12/28 11:26:44;;;;;;;;;;;;;;;15.98;47.40;101773.50;5069928;28;1050;-53
2023/12/28 11:29:10;;;;;;;;;;;;;;;15.76;47.78;101769.34;5056406;28;1107;-55
2023/12/28 11:31:35;;;;;;;;;;;;;;;17.36;45.60;101761.38;5052377;28;1064;-53
2023/12/28 11:34:01;;;;;;;;;;;;;;;16.06;47.70;101765.16;5051676;28;1184;-56
2023/12/28 11:36:32;;;;;;;;;;;;;;;15.73;47.04;101752.72;5069013;28;1166;-54
2023/12/28 11:38:58;;;;;;;;;;;;;;;15.67;46.23;101754.75;5076390;28;1901;-53
2023/12/28 11:41:24;;;;;;;;;;;;;;;17.09;46.66;101754.09;5076008;28;1316;-52
2023/12/28 11:43:53;;;;;;;;;;;;;;;15.98;47.47;101754.94;5075679;28;1324;-54
2023/12/28 11:46:20;;;;;;;;;;;;;;;15.65;47.20;101750.47;5076043;28;1107;-56
2023/12/28 11:48:45;;;;;;;;;;;;;;;17.22;46.02;101746.25;5057272;28;854;-52
2023/12/28 11:51:11;;;;;;;;;;;;;;;16.09;47.43;101740.22;5075863;28;1139;-56
2023/12/28 11:53:37;;;;;;;;;;;;;;;15.71;47.02;101734.25;5057910;28;1154;-55
2023/12/28 11:56:03;;;;;;;;;;;;;;;17.08;47.12;101735.56;5057810;28;1322;-50
2023/12/28 11:58:28;;;;;;;;;;;;;;;16.22;47.68;101730.63;5075913;28;1898;-50
2023/12/28 12:00:54;;;;;;;;;;;;;;;15.88;47.45;101732.47;5075524;28;891;-52
2023/12/28 12:03:20;;;;;;;;;;;;;;;15.65;46.90;101729.25;5075364;28;1221;-55
2023/12/28 12:05:46;;;;;;;;;;;;;;;15.52;46.46;101726.38;5062692;28;1199;-54
2023/12/28 12:08:14;;;;;;;;;;;;;;;17.07;46.29;101715.22;5068275;28;1056;-50
2023/12/28 12:10:40;;;;;;;;;;;;;;;15.95;47.65;101703.81;5057418;28;1063;-48
2023/12/28 12:13:06;;;;;;;;;;;;;;;16.70;47.51;101703.16;5063530;28;841;-54
2023/12/28 12:15:32;;;;;;;;;;;;;;;16.63;47.11;101701.81;5056528;28;1119;-51
2023/12/28 12:17:58;;;;;;;;;;;;;;;15.87;47.74;101698.91;5063747;28;1095;-53
2023/12/28 12:20:23;;;;;;;;;;;;;;;15.71;47.05;101691.78;5074815;28;1989;-52
2023/12/28 12:22:49;;;;;;;;;;;;;;;17.22;46.35;101695.72;5068823;28;1059;-55
2023/12/28 12:25:15;;;;;;;;;;;;;;;16.10;47.55;101689.69;5068640;28;1165;-57
2023/12/28 12:27:41;;;;;;;;;;;;;;;15.69;47.37;101677.75;5057326;28;1285;-58
2023/12/28 12:30:07;;;;;;;;;;;;;;;17.00;46.67;101681.03;5075752;28;1207;-51
2023/12/28 12:32:32;;;;;;;;;;;;;;;16.02;47.60;101676.88;5061978;28;1074;-53
2023/12/28 12:34:58;;;;;;;;;;;;;;;15.77;46.72;101680.84;5041114;28;1098;-52
2023/12/28 12:37:24;;;;;;;;;;;;;;;15.89;47.44;101675.81;5062742;28;1129;-51
2023/12/28 12:39:49;;;;;;;;;;;;;;;16.80;46.68;101674.25;5056622;28;1917;-55